createdAt,value
2023-12-11T00:01:39.333Z,-1.90
2023-12-11T00:04:41.103Z,-1.93
2023-12-11T00:07:42.778Z,-1.96
2023-12-11T00:10:44.776Z,-2.12
2023-12-11T00:13:46.407Z,-2.22
2023-12-11T00:16:48.303Z,-2.38
2023-12-11T00:19:50.153Z,-2.23
2023-12-11T00:22:51.789Z,-2.25
2023-12-11T00:25:53.604Z,-2.26
2023-12-11T00:28:55.228Z,-2.38
2023-12-11T00:31:57.529Z,-2.39
2023-12-11T00:34:59.357Z,-2.37
2023-12-11T00:38:01.121Z,-2.43
2023-12-11T00:41:02.856Z,-2.45
2023-12-11T00:44:04.596Z,-2.48
2023-12-11T00:47:06.376Z,-2.50
2023-12-11T00:50:08.218Z,-2.54
2023-12-11T00:53:09.973Z,-2.61
2023-12-11T00:56:11.584Z,-2.65
2023-12-11T00:59:13.211Z,-2.76
2023-12-11T01:02:14.905Z,-2.78
2023-12-11T01:05:16.578Z,-2.85
2023-12-11T01:08:18.186Z,-2.83
2023-12-11T01:11:19.764Z,-2.84
2023-12-11T01:14:21.422Z,-2.74
2023-12-11T01:17:37.834Z,-2.62
2023-12-11T01:20:42.223Z,-2.55
2023-12-11T01:23:43.985Z,-2.50
2023-12-11T01:26:45.623Z,-2.28
2023-12-11T01:29:47.257Z,-2.25
2023-12-11T01:32:48.904Z,-2.42
2023-12-11T01:35:50.828Z,-2.32
2023-12-11T01:38:52.381Z,-2.35
2023-12-11T01:41:54.004Z,-2.29
2023-12-11T01:44:55.682Z,-2.26
2023-12-11T01:47:58.010Z,-2.21
2023-12-11T01:50:59.914Z,-2.27
2023-12-11T01:54:01.918Z,-2.11
2023-12-11T01:57:04.025Z,-2.09
2023-12-11T02:00:07.114Z,-2.03
2023-12-11T02:03:10.671Z,-1.99
2023-12-11T02:06:12.367Z,-1.94
2023-12-11T02:09:14.117Z,-1.85
2023-12-11T02:12:15.788Z,-1.87
2023-12-11T02:15:42.350Z,-1.76
2023-12-11T02:18:44.835Z,-1.75
2023-12-11T02:21:46.752Z,-1.84
2023-12-11T02:25:01.979Z,-1.75
2023-12-11T02:28:05.303Z,-1.64
2023-12-11T02:31:07.330Z,-1.67
2023-12-11T02:34:10.170Z,-1.61
2023-12-11T02:37:12.034Z,-1.55
2023-12-11T02:40:13.843Z,-1.50
2023-12-11T02:43:15.570Z,-1.46
2023-12-11T02:46:17.303Z,-1.43
2023-12-11T02:49:19.136Z,-1.49
2023-12-11T02:52:20.768Z,-1.45
2023-12-11T02:55:22.482Z,-1.47
2023-12-11T02:58:24.109Z,-1.47
2023-12-11T03:01:26.088Z,-1.51
2023-12-11T03:04:27.869Z,-1.48
2023-12-11T03:07:29.763Z,-1.50
2023-12-11T03:10:32.640Z,-1.63
2023-12-11T03:13:34.262Z,-1.47
2023-12-11T03:16:36.111Z,-1.46
2023-12-11T03:19:38.032Z,-1.42
2023-12-11T03:22:39.963Z,-1.44
2023-12-11T03:25:42.754Z,-1.40
2023-12-11T03:28:44.476Z,-1.36
2023-12-11T03:31:46.086Z,-1.42
2023-12-11T03:34:52.920Z,-1.48
2023-12-11T03:37:54.546Z,-1.52
2023-12-11T03:40:56.318Z,-1.60
2023-12-11T03:43:57.856Z,-1.58
2023-12-11T03:46:59.492Z,-1.61
2023-12-11T03:50:01.273Z,-1.62
2023-12-11T03:53:11.378Z,-1.62
2023-12-11T03:56:13.048Z,-1.66
2023-12-11T03:59:14.852Z,-1.70
2023-12-11T04:02:16.736Z,-1.64
2023-12-11T04:05:20.040Z,-1.69
2023-12-11T04:08:21.772Z,-1.62
2023-12-11T04:11:23.419Z,-1.67
2023-12-11T04:14:25.308Z,-1.59
2023-12-11T04:17:27.022Z,-1.63
2023-12-11T04:20:28.662Z,-1.65
2023-12-11T04:23:30.403Z,-1.62
2023-12-11T04:26:32.182Z,-1.58
2023-12-11T04:29:33.796Z,-1.47
2023-12-11T04:32:35.474Z,-1.40
2023-12-11T04:35:37.291Z,-1.41
2023-12-11T04:38:38.818Z,-1.29
2023-12-11T04:41:40.588Z,-1.28
2023-12-11T04:44:42.118Z,-1.21
2023-12-11T04:47:43.792Z,-1.19
2023-12-11T04:50:45.520Z,-1.27
2023-12-11T04:53:47.184Z,-1.11
2023-12-11T04:56:48.925Z,-1.07
2023-12-11T04:59:50.843Z,-1.18
2023-12-11T05:02:52.585Z,-1.08
2023-12-11T05:05:54.145Z,-0.98
2023-12-11T05:08:55.813Z,-0.95
2023-12-11T05:11:57.434Z,-0.96
2023-12-11T05:15:01.162Z,-0.92
2023-12-11T05:18:02.880Z,-0.90
2023-12-11T05:21:10.694Z,-0.83
2023-12-11T05:24:13.050Z,-0.93
2023-12-11T05:27:15.082Z,-0.78
2023-12-11T05:30:16.936Z,-0.75
2023-12-11T05:33:18.716Z,-0.78
2023-12-11T05:36:20.506Z,-0.87
2023-12-11T05:39:22.119Z,-0.71
2023-12-11T05:42:23.785Z,-0.70
2023-12-11T05:45:25.419Z,-0.70
2023-12-11T05:48:27.231Z,-0.65
2023-12-11T05:51:29.339Z,-0.62
2023-12-11T05:54:30.957Z,-0.56
2023-12-11T05:57:32.989Z,-0.56
2023-12-11T06:00:35.199Z,-0.52
2023-12-11T06:03:36.950Z,-0.49
2023-12-11T06:06:38.505Z,-0.44
2023-12-11T06:09:40.205Z,-0.51
2023-12-11T06:12:42.082Z,-0.46
2023-12-11T06:15:44.432Z,-0.38
2023-12-11T06:18:46.275Z,-0.36
2023-12-11T06:21:48.041Z,-0.32
2023-12-11T06:24:49.602Z,-0.29
2023-12-11T06:27:52.978Z,-0.25
2023-12-11T06:30:54.890Z,-0.21
2023-12-11T06:33:57.808Z,-0.17
2023-12-11T06:36:59.702Z,-0.09
2023-12-11T06:40:01.917Z,-0.02
2023-12-11T06:43:03.926Z,0.07
2023-12-11T06:46:05.767Z,0.06
2023-12-11T06:49:07.395Z,-0.02
2023-12-11T06:52:09.889Z,-0.04
2023-12-11T06:55:11.587Z,0.10
2023-12-11T06:58:13.321Z,0.10
2023-12-11T07:01:15.148Z,0.22
2023-12-11T07:04:17.423Z,0.24
2023-12-11T07:07:19.253Z,0.27
2023-12-11T07:10:20.863Z,0.41
2023-12-11T07:13:22.644Z,0.35
2023-12-11T07:16:27.307Z,0.41
2023-12-11T07:19:29.132Z,0.42
2023-12-11T07:22:34.445Z,0.49
2023-12-11T07:25:36.409Z,0.55
2023-12-11T07:28:38.914Z,0.69
2023-12-11T07:31:42.619Z,0.37
2023-12-11T07:34:44.367Z,0.78
2023-12-11T07:37:46.124Z,0.93
2023-12-11T07:40:56.613Z,0.94
2023-12-11T07:43:59.226Z,1.20
2023-12-11T07:47:07.137Z,1.36
2023-12-11T07:50:08.992Z,1.27
2023-12-11T07:53:10.682Z,1.32
2023-12-11T07:56:19.153Z,0.97
2023-12-11T07:59:20.851Z,0.69
2023-12-11T08:02:22.369Z,0.56
2023-12-11T08:05:24.033Z,0.62
2023-12-11T08:08:25.684Z,0.44
2023-12-11T08:11:31.049Z,0.55
2023-12-11T08:14:35.026Z,0.58
2023-12-11T08:17:38.110Z,0.81
2023-12-11T08:20:39.671Z,1.15
2023-12-11T08:23:49.125Z,1.48
2023-12-11T08:26:50.893Z,1.86
2023-12-11T08:29:52.446Z,2.05
2023-12-11T08:32:54.195Z,2.09
2023-12-11T08:35:55.763Z,2.28
2023-12-11T08:38:57.417Z,1.88
2023-12-11T08:41:59.106Z,1.98
2023-12-11T08:45:00.932Z,2.33
2023-12-11T08:48:02.684Z,2.96
2023-12-11T08:51:04.790Z,3.46
2023-12-11T08:54:06.854Z,3.57
2023-12-11T08:57:08.686Z,3.87
2023-12-11T09:00:11.485Z,3.43
2023-12-11T09:03:13.260Z,3.25
2023-12-11T09:06:15.011Z,3.53
2023-12-11T09:09:16.742Z,3.86
2023-12-11T09:12:28.061Z,3.94
2023-12-11T09:15:34.852Z,3.96
2023-12-11T09:18:37.710Z,3.92
2023-12-11T09:21:39.510Z,3.93
2023-12-11T09:24:41.158Z,3.50
2023-12-11T09:27:42.772Z,3.57
2023-12-11T09:30:45.097Z,3.61
2023-12-11T09:33:46.974Z,3.32
2023-12-11T09:36:48.819Z,3.47
2023-12-11T09:39:50.764Z,4.03
2023-12-11T09:42:52.878Z,4.15
2023-12-11T09:45:56.116Z,4.79
2023-12-11T09:48:57.850Z,5.02
2023-12-11T09:52:00.523Z,4.92
2023-12-11T09:55:03.534Z,4.82
2023-12-11T09:58:05.788Z,4.66
2023-12-11T10:01:08.353Z,4.68
2023-12-11T10:04:10.225Z,5.24
2023-12-11T10:07:12.379Z,5.47
2023-12-11T10:10:34.583Z,5.30
2023-12-11T10:13:36.792Z,4.87
2023-12-11T10:16:38.562Z,4.83
2023-12-11T10:19:40.347Z,4.78
2023-12-11T10:22:42.129Z,4.78
2023-12-11T10:26:08.694Z,4.67
2023-12-11T10:29:21.281Z,4.81
2023-12-11T10:32:29.731Z,4.96
2023-12-11T10:35:32.602Z,5.01
2023-12-11T10:38:34.424Z,5.09
2023-12-11T10:41:36.179Z,5.12
2023-12-11T10:44:46.748Z,5.34
2023-12-11T10:47:51.904Z,5.63
2023-12-11T10:50:53.672Z,5.49
2023-12-11T10:53:56.483Z,6.45
2023-12-11T10:57:01.428Z,7.17
2023-12-11T11:00:04.376Z,6.56
2023-12-11T11:03:10.375Z,5.34
2023-12-11T11:06:12.546Z,6.93
2023-12-11T11:09:23.994Z,7.64
2023-12-11T11:12:42.583Z,7.08
2023-12-11T11:15:51.307Z,6.99
2023-12-11T11:19:07.057Z,7.07
2023-12-11T11:22:12.040Z,6.88
2023-12-11T11:25:35.490Z,8.17
2023-12-11T11:28:40.424Z,8.98
2023-12-11T11:31:53.924Z,9.07
2023-12-11T11:34:55.771Z,9.13
2023-12-11T11:37:57.605Z,9.40
2023-12-11T11:41:00.159Z,9.48
2023-12-11T11:44:07.770Z,9.39
2023-12-11T11:47:09.435Z,9.24
2023-12-11T11:50:14.236Z,9.27
2023-12-11T11:53:18.334Z,9.26
2023-12-11T11:56:20.054Z,9.02
2023-12-11T11:59:21.764Z,8.78
2023-12-11T12:02:24.582Z,9.23
2023-12-11T12:05:27.636Z,9.50
2023-12-11T12:08:29.810Z,9.85
2023-12-11T12:11:35.265Z,10.15
2023-12-11T12:14:37.019Z,10.30
2023-12-11T12:17:40.275Z,9.37
2023-12-11T12:20:42.391Z,9.86
2023-12-11T12:23:44.065Z,10.40
2023-12-11T12:26:47.412Z,9.00
2023-12-11T12:29:49.457Z,9.86
2023-12-11T12:32:52.502Z,10.34
2023-12-11T12:35:54.693Z,9.75
2023-12-11T12:38:56.693Z,7.65
2023-12-11T12:41:58.366Z,5.45
2023-12-11T12:45:01.006Z,4.81
2023-12-11T12:48:02.761Z,4.36
2023-12-11T12:51:06.288Z,4.64
2023-12-11T12:54:07.902Z,4.46
2023-12-11T12:57:09.770Z,4.48
2023-12-11T13:00:21.659Z,4.50
2023-12-11T13:03:24.716Z,4.67
2023-12-11T13:06:31.639Z,4.81
2023-12-11T13:09:33.714Z,4.65
2023-12-11T13:12:35.390Z,4.76
2023-12-11T13:15:36.876Z,4.67
2023-12-11T13:18:38.539Z,4.46
2023-12-11T13:21:40.215Z,4.50
2023-12-11T13:24:41.869Z,4.46
2023-12-11T13:27:47.834Z,3.87
2023-12-11T13:30:49.735Z,3.68
2023-12-11T13:33:53.038Z,3.16
2023-12-11T13:36:55.125Z,3.40
2023-12-11T13:39:57.901Z,3.38
2023-12-11T13:42:59.634Z,3.32
2023-12-11T13:46:01.459Z,3.30
2023-12-11T13:49:04.039Z,3.44
2023-12-11T13:52:06.104Z,3.31
2023-12-11T13:55:08.350Z,3.06
2023-12-11T13:58:10.051Z,3.08
2023-12-11T14:01:12.012Z,3.10
2023-12-11T14:04:14.742Z,3.06
2023-12-11T14:07:16.451Z,2.77
2023-12-11T14:10:18.093Z,2.67
2023-12-11T14:13:19.888Z,2.61
2023-12-11T14:16:22.308Z,2.52
2023-12-11T14:19:24.075Z,2.59
2023-12-11T14:22:25.791Z,2.59
2023-12-11T14:25:27.589Z,2.56
2023-12-11T14:28:29.337Z,2.44
2023-12-11T14:31:30.909Z,2.43
2023-12-11T14:34:32.685Z,2.36
2023-12-11T14:37:34.945Z,2.15
2023-12-11T14:40:37.006Z,2.08
2023-12-11T14:43:38.721Z,2.09
2023-12-11T14:46:40.280Z,2.11
2023-12-11T14:49:42.033Z,2.03
2023-12-11T14:52:43.783Z,1.96
2023-12-11T14:55:45.566Z,1.89
2023-12-11T14:58:49.672Z,1.50
2023-12-11T15:01:51.529Z,1.41
2023-12-11T15:04:53.311Z,1.38
2023-12-11T15:07:54.836Z,1.44
2023-12-11T15:10:56.607Z,1.48
2023-12-11T15:13:58.234Z,1.54
2023-12-11T15:17:00.623Z,1.59
2023-12-11T15:20:10.605Z,1.58
2023-12-11T15:23:13.050Z,1.67
2023-12-11T15:26:21.034Z,1.65
2023-12-11T15:29:22.776Z,1.56
2023-12-11T15:32:24.580Z,1.53
2023-12-11T15:35:26.175Z,1.44
2023-12-11T15:38:29.855Z,1.49
2023-12-11T15:41:31.650Z,1.52
2023-12-11T15:44:33.231Z,1.44
2023-12-11T15:47:59.634Z,1.37
2023-12-11T15:50:56.634Z,1.35
2023-12-11T15:54:04.322Z,1.26
2023-12-11T15:57:05.867Z,1.38
2023-12-11T16:00:12.168Z,1.37
2023-12-11T16:03:13.966Z,1.33
2023-12-11T16:06:15.747Z,1.49
2023-12-11T16:09:19.084Z,1.46
2023-12-11T16:12:20.796Z,1.53
2023-12-11T16:15:22.753Z,1.59
2023-12-11T16:18:24.442Z,1.66
2023-12-11T16:21:25.996Z,1.72
2023-12-11T16:24:27.648Z,1.72
2023-12-11T16:27:29.407Z,1.78
2023-12-11T16:30:31.190Z,1.75
2023-12-11T16:33:32.886Z,1.86
2023-12-11T16:36:34.592Z,1.87
2023-12-11T16:39:36.365Z,1.76
2023-12-11T16:42:38.036Z,1.89
2023-12-11T16:45:44.150Z,1.95
2023-12-11T16:48:46.071Z,1.96
2023-12-11T16:51:47.786Z,1.98
2023-12-11T16:54:49.295Z,2.00
2023-12-11T16:57:51.587Z,1.90
2023-12-11T17:00:53.451Z,1.89
2023-12-11T17:03:55.215Z,1.81
2023-12-11T17:06:56.940Z,1.93
2023-12-11T17:10:00.075Z,2.08
2023-12-11T17:13:02.115Z,2.11
2023-12-11T17:16:04.564Z,2.14
2023-12-11T17:19:06.424Z,2.14
2023-12-11T17:22:08.176Z,2.15
2023-12-11T17:25:09.944Z,2.16
2023-12-11T17:28:11.741Z,2.04
2023-12-11T17:31:15.370Z,1.98
2023-12-11T17:34:17.084Z,2.09
2023-12-11T17:37:22.407Z,2.10
2023-12-11T17:40:25.777Z,2.09
2023-12-11T17:43:27.440Z,2.09
2023-12-11T17:46:29.051Z,2.08
2023-12-11T17:49:30.874Z,2.06
2023-12-11T17:52:32.762Z,2.03
2023-12-11T17:55:34.566Z,2.05
2023-12-11T17:58:38.573Z,2.06
2023-12-11T18:01:40.381Z,2.05
2023-12-11T18:04:42.179Z,2.06
2023-12-11T18:07:44.116Z,2.12
2023-12-11T18:10:46.391Z,2.03
2023-12-11T18:13:48.074Z,2.03
2023-12-11T18:16:49.549Z,2.01
2023-12-11T18:19:51.353Z,2.01
2023-12-11T18:22:53.009Z,1.99
2023-12-11T18:25:54.709Z,1.95
2023-12-11T18:28:56.408Z,1.99
2023-12-11T18:31:57.983Z,2.10
2023-12-11T18:35:01.634Z,2.04
2023-12-11T18:38:03.475Z,2.05
2023-12-11T18:41:05.610Z,2.14
2023-12-11T18:44:07.533Z,2.12
2023-12-11T18:47:09.257Z,1.86
2023-12-11T18:50:11.437Z,1.98
2023-12-11T18:53:13.588Z,1.95
2023-12-11T18:56:23.397Z,1.79
2023-12-11T18:59:25.025Z,1.88
2023-12-11T19:02:26.572Z,1.95
2023-12-11T19:05:28.392Z,1.94
2023-12-11T19:08:30.119Z,2.02
2023-12-11T19:11:31.629Z,2.09
2023-12-11T19:14:33.463Z,2.09
2023-12-11T19:17:35.319Z,2.01
2023-12-11T19:20:37.436Z,2.03
2023-12-11T19:23:39.118Z,1.97
2023-12-11T19:26:40.571Z,1.84
2023-12-11T19:29:42.197Z,1.91
2023-12-11T19:32:43.698Z,1.92
2023-12-11T19:35:45.353Z,1.89
2023-12-11T19:38:46.815Z,1.99
2023-12-11T19:41:48.498Z,2.02
2023-12-11T19:44:50.083Z,2.00
2023-12-11T19:47:51.955Z,2.00
2023-12-11T19:50:53.620Z,1.96
2023-12-11T19:53:55.145Z,2.03
2023-12-11T19:56:56.759Z,1.91
2023-12-11T19:59:58.418Z,1.94
2023-12-11T20:03:00.205Z,1.94
2023-12-11T20:06:01.946Z,1.74
2023-12-11T20:09:03.651Z,1.58
2023-12-11T20:12:11.160Z,1.70
2023-12-11T20:15:16.078Z,1.81
2023-12-11T20:18:18.201Z,1.83
2023-12-11T20:21:19.876Z,1.71
2023-12-11T20:24:21.505Z,1.55
2023-12-11T20:27:23.090Z,1.60
2023-12-11T20:30:24.748Z,1.51
2023-12-11T20:33:26.306Z,1.41
2023-12-11T20:36:29.661Z,1.30
2023-12-11T20:39:31.942Z,1.19
2023-12-11T20:42:33.432Z,1.10
2023-12-11T20:45:35.646Z,0.99
2023-12-11T20:48:37.319Z,0.96
2023-12-11T20:51:42.972Z,0.91
2023-12-11T20:54:44.740Z,0.89
2023-12-11T20:57:46.454Z,0.90
2023-12-11T21:00:48.168Z,0.88
2023-12-11T21:03:49.756Z,0.89
2023-12-11T21:06:51.533Z,0.91
2023-12-11T21:09:53.107Z,0.96
2023-12-11T21:12:54.711Z,0.94
2023-12-11T21:15:59.511Z,0.88
2023-12-11T21:19:04.431Z,0.81
2023-12-11T21:22:06.346Z,0.81
2023-12-11T21:25:07.958Z,0.93
2023-12-11T21:28:09.587Z,0.91
2023-12-11T21:31:28.376Z,1.03
2023-12-11T21:34:30.140Z,1.11
2023-12-11T21:37:32.042Z,1.12
2023-12-11T21:40:33.948Z,1.03
2023-12-11T21:43:35.484Z,1.15
2023-12-11T21:46:37.520Z,1.12
2023-12-11T21:49:39.225Z,1.12
2023-12-11T21:52:40.772Z,0.93
2023-12-11T21:55:42.468Z,1.04
2023-12-11T21:58:44.094Z,1.03
2023-12-11T22:01:45.878Z,1.04
2023-12-11T22:04:47.682Z,1.09
2023-12-11T22:07:49.147Z,1.10
2023-12-11T22:10:50.786Z,1.09
2023-12-11T22:13:52.418Z,1.02
2023-12-11T22:16:54.014Z,1.06
2023-12-11T22:19:58.250Z,1.01
2023-12-11T22:22:59.910Z,1.09
2023-12-11T22:26:01.522Z,1.03
2023-12-11T22:29:03.029Z,1.04
2023-12-11T22:32:06.601Z,0.93
2023-12-11T22:35:08.606Z,0.80
2023-12-11T22:38:11.022Z,0.85
2023-12-11T22:41:27.030Z,0.86
2023-12-11T22:44:28.642Z,0.99
2023-12-11T22:47:30.470Z,1.03
2023-12-11T22:50:32.328Z,1.00
2023-12-11T22:53:33.802Z,0.94
2023-12-11T22:56:35.354Z,1.00
2023-12-11T22:59:37.329Z,0.89
2023-12-11T23:02:38.976Z,0.89
2023-12-11T23:05:46.739Z,1.07
2023-12-11T23:08:48.612Z,1.21
2023-12-11T23:11:50.180Z,1.27
2023-12-11T23:14:51.747Z,1.10
2023-12-11T23:17:53.450Z,1.25
2023-12-11T23:20:54.931Z,1.21
2023-12-11T23:23:57.854Z,1.12
2023-12-11T23:26:59.443Z,1.20
2023-12-11T23:30:07.139Z,1.18
2023-12-11T23:33:09.941Z,1.23
2023-12-11T23:36:12.832Z,1.13
2023-12-11T23:39:14.408Z,1.14
2023-12-11T23:42:15.979Z,1.07
2023-12-11T23:45:17.717Z,1.12
2023-12-11T23:48:19.306Z,1.04
2023-12-11T23:51:21.361Z,1.08
2023-12-11T23:54:23.071Z,1.15
2023-12-11T23:57:24.557Z,1.26
